Time;durP1;ratioP1;P1;durP2;ratioP2;P2;SDS_P1;SDS_P2;PMS_P1;PMS_P2;Temp;Humidity;BMP_temperature;BMP_pressure;BME280_temperature;BME280_humidity;BME280_pressure;Samples;Min_cycle;Max_cycle;Signal;HPM_P1;HPM_P2
2021/07/22 00:00:52;;;;;;;3.05;0.57;;;14.60;87.30;;;;;;4899378;29;20108;-72
2021/07/22 00:03:17;;;;;;;2.72;0.65;;;14.60;87.10;;;;;;4899131;29;20032;-73
2021/07/22 00:05:43;;;;;;;2.83;0.70;;;14.60;87.10;;;;;;4899152;29;20047;-72
2021/07/22 00:08:11;;;;;;;2.85;0.60;;;14.60;87.30;;;;;;4899115;29;20032;-72
2021/07/22 00:10:40;;;;;;;1.75;0.70;;;14.60;87.20;;;;;;4898965;29;20389;-73
2021/07/22 00:13:07;;;;;;;1.95;0.70;;;14.50;87.10;;;;;;4898673;29;20040;-72
2021/07/22 00:15:33;;;;;;;5.03;0.70;;;14.50;87.10;;;;;;4898945;29;20539;-72
2021/07/22 00:17:59;;;;;;;1.83;0.70;;;14.50;87.20;;;;;;4898756;29;20041;-73
2021/07/22 00:20:24;;;;;;;1.52;0.73;;;14.50;87.00;;;;;;4898748;29;20186;-72
2021/07/22 00:22:50;;;;;;;3.95;0.70;;;14.50;87.20;;;;;;4899196;29;20028;-72
2021/07/22 00:25:16;;;;;;;6.40;0.80;;;14.40;87.20;;;;;;4897854;29;20112;-72
2021/07/22 00:27:42;;;;;;;2.90;0.55;;;14.40;87.20;;;;;;4898571;29;20040;-71
2021/07/22 00:30:08;;;;;;;1.58;0.57;;;14.40;87.40;;;;;;4898487;29;20111;-72
2021/07/22 00:32:35;;;;;;;2.70;0.80;;;14.40;87.40;;;;;;4898817;29;20029;-72
2021/07/22 00:35:02;;;;;;;3.25;0.60;;;14.40;87.40;;;;;;4898844;29;20040;-72
2021/07/22 00:37:28;;;;;;;2.88;0.60;;;14.30;87.40;;;;;;4898344;29;20199;-72
2021/07/22 00:39:53;;;;;;;3.38;0.60;;;14.30;87.50;;;;;;4898753;29;20066;-72
2021/07/22 00:42:19;;;;;;;4.80;0.70;;;14.30;87.70;;;;;;4898223;29;20100;-72
2021/07/22 00:44:45;;;;;;;3.63;0.77;;;14.30;87.80;;;;;;4898390;29;20025;-72
2021/07/22 00:47:11;;;;;;;2.38;1.02;;;14.30;87.90;;;;;;4898170;29;20024;-72
2021/07/22 00:49:36;;;;;;;2.95;0.77;;;14.30;88.00;;;;;;4898291;29;20496;-72
2021/07/22 00:52:02;;;;;;;2.60;0.95;;;14.30;88.20;;;;;;4898064;29;20112;-72
2021/07/22 00:54:28;;;;;;;3.78;1.02;;;14.30;88.30;;;;;;4898067;29;20032;-72
2021/07/22 00:56:54;;;;;;;6.38;0.90;;;14.30;88.50;;;;;;4898249;29;20037;-72
2021/07/22 00:59:19;;;;;;;2.78;0.70;;;14.30;88.60;;;;;;4897912;29;20108;-72
2021/07/22 01:01:45;;;;;;;2.20;0.85;;;14.20;88.70;;;;;;4898314;29;20029;-72
2021/07/22 01:04:11;;;;;;;2.42;1.02;;;14.20;88.80;;;;;;4897815;29;20120;-72
2021/07/22 01:06:36;;;;;;;6.05;1.67;;;14.20;88.70;;;;;;4897951;29;20061;-72
2021/07/22 01:09:02;;;;;;;2.05;0.55;;;14.20;89.00;;;;;;4897933;29;20077;-72
2021/07/22 01:11:28;;;;;;;3.45;0.90;;;14.30;89.20;;;;;;4897662;29;20524;-72
2021/07/22 01:13:54;;;;;;;1.95;0.70;;;14.20;89.20;;;;;;4880980;29;20029;-72
2021/07/22 01:16:19;;;;;;;2.08;0.90;;;14.20;89.30;;;;;;4897702;29;20043;-72
2021/07/22 01:52:25;;;;;;;1.90;0.80;;;14.20;90.40;;;;;;5763820;23;20067;-68
2021/07/22 01:54:50;;;;;;;3.00;0.85;;;14.20;90.40;;;;;;4915168;29;20030;-68
2021/07/22 01:57:16;;;;;;;1.98;0.70;;;14.20;90.40;;;;;;4916341;29;20042;-69
2021/07/22 01:59:42;;;;;;;2.08;0.90;;;14.20;90.50;;;;;;4916161;29;20416;-69
2021/07/22 02:02:10;;;;;;;2.72;0.85;;;14.20;90.50;;;;;;4916042;29;20028;-69
2021/07/22 02:04:37;;;;;;;1.90;0.75;;;14.20;90.50;;;;;;4916064;29;20035;-69
2021/07/22 02:07:03;;;;;;;2.88;0.80;;;14.20;90.50;;;;;;4915890;29;20024;-69
2021/07/22 02:09:29;;;;;;;3.10;0.95;;;14.20;90.40;;;;;;4915729;29;20179;-69
2021/07/22 02:11:57;;;;;;;4.72;0.85;;;14.20;90.50;;;;;;4898937;29;20035;-69
2021/07/22 02:14:24;;;;;;;2.53;0.70;;;14.20;90.60;;;;;;4915713;29;20031;-69
2021/07/22 02:16:49;;;;;;;3.72;0.75;;;14.20;90.60;;;;;;4915900;29;20116;-69
2021/07/22 02:19:15;;;;;;;2.50;0.70;;;14.20;90.60;;;;;;4915711;29;20118;-69
2021/07/22 02:21:42;;;;;;;4.25;0.95;;;14.20;90.70;;;;;;4916000;29;20051;-69
2021/07/22 02:24:09;;;;;;;2.67;0.90;;;14.20;90.60;;;;;;4916086;29;20043;-69
2021/07/22 02:26:35;;;;;;;1.30;0.88;;;14.20;90.70;;;;;;4915650;29;20027;-69
2021/07/22 02:29:02;;;;;;;1.90;0.60;;;14.20;90.70;;;;;;4915821;29;20391;-69
2021/07/22 02:31:27;;;;;;;3.17;0.80;;;14.20;90.70;;;;;;4915882;29;20392;-69
2021/07/22 02:33:53;;;;;;;2.38;0.90;;;14.20;90.80;;;;;;4916096;29;20028;-69
2021/07/22 02:36:19;;;;;;;1.23;0.73;;;14.20;90.80;;;;;;4915752;29;20038;-69
2021/07/22 02:38:45;;;;;;;3.08;0.90;;;14.20;90.80;;;;;;4915758;29;20342;-69
2021/07/22 02:41:11;;;;;;;2.92;0.75;;;14.20;90.90;;;;;;4915718;29;20028;-69
2021/07/22 02:43:36;;;;;;;2.40;0.80;;;14.20;90.90;;;;;;4915742;29;20123;-69
2021/07/22 02:46:06;;;;;;;1.13;0.68;;;14.20;90.90;;;;;;4915871;29;20028;-69
2021/07/22 02:48:32;;;;;;;0.88;0.73;;;14.20;91.00;;;;;;4917233;29;20043;-69
2021/07/22 02:51:05;;;;;;;3.20;0.70;;;14.10;91.00;;;;;;4919314;29;20043;-68
2021/07/22 02:53:31;;;;;;;1.05;0.52;;;14.10;91.00;;;;;;4918820;29;20044;-68
2021/07/22 02:56:01;;;;;;;1.50;0.75;;;14.10;91.10;;;;;;4919274;29;20539;-68
2021/07/22 02:58:27;;;;;;;3.15;0.80;;;14.20;91.10;;;;;;4919247;29;20051;-68
2021/07/22 03:00:54;;;;;;;1.40;0.70;;;14.20;91.10;;;;;;4919435;29;20032;-68
2021/07/22 03:03:20;;;;;;;0.95;0.73;;;14.20;91.10;;;;;;4918977;29;20032;-68
2021/07/22 03:05:45;;;;;;;2.80;0.80;;;14.20;91.10;;;;;;4918956;29;20031;-68
2021/07/22 03:08:11;;;;;;;1.73;0.98;;;14.20;91.30;;;;;;4918926;29;20035;-68
2021/07/22 03:10:37;;;;;;;1.25;0.60;;;14.30;91.30;;;;;;4919102;29;20033;-68
2021/07/22 03:13:06;;;;;;;1.02;0.68;;;14.30;91.40;;;;;;4918861;29;20514;-68
2021/07/22 03:15:32;;;;;;;2.45;0.80;;;14.30;91.20;;;;;;4918748;29;20111;-68
2021/07/22 03:17:58;;;;;;;0.85;0.60;;;14.30;91.20;;;;;;4919071;29;20072;-68
2021/07/22 03:20:24;;;;;;;1.80;0.68;;;14.30;91.30;;;;;;4918866;29;20098;-68
2021/07/22 03:22:50;;;;;;;1.73;0.70;;;14.40;91.10;;;;;;4918596;29;20888;-68
2021/07/22 03:25:16;;;;;;;2.15;0.60;;;14.30;91.20;;;;;;4918779;29;20024;-68
2021/07/22 03:27:41;;;;;;;0.77;0.57;;;14.40;91.20;;;;;;4918518;29;20064;-69
2021/07/22 03:30:08;;;;;;;1.75;0.70;;;14.30;91.20;;;;;;4918900;29;20024;-68
2021/07/22 03:32:35;;;;;;;1.73;0.68;;;14.40;91.40;;;;;;4918641;29;20062;-68
2021/07/22 03:35:01;;;;;;;2.75;0.75;;;14.40;91.40;;;;;;4918779;29;20032;-68
2021/07/22 03:37:27;;;;;;;4.15;0.75;;;14.40;91.40;;;;;;4918699;29;20107;-68
2021/07/22 03:39:53;;;;;;;1.30;0.55;;;14.40;91.30;;;;;;4918269;29;20444;-68
2021/07/22 03:42:21;;;;;;;1.67;0.50;;;14.40;91.50;;;;;;4918436;29;20035;-69
2021/07/22 03:44:46;;;;;;;1.35;0.50;;;14.40;91.40;;;;;;4918518;29;20107;-69
2021/07/22 03:47:12;;;;;;;3.13;0.60;;;14.40;91.50;;;;;;4918457;29;20446;-69
2021/07/22 03:49:38;;;;;;;0.82;0.40;;;14.40;91.60;;;;;;4918471;29;20028;-70
2021/07/22 03:52:04;;;;;;;1.60;0.68;;;14.40;91.70;;;;;;4918086;29;20036;-68
2021/07/22 03:54:30;;;;;;;0.40;0.40;;;14.40;91.80;;;;;;4918441;29;20032;-68
2021/07/22 03:56:56;;;;;;;0.50;0.47;;;14.40;91.80;;;;;;4918226;29;20083;-68
2021/07/22 03:59:22;;;;;;;1.80;0.50;;;14.40;91.80;;;;;;4917154;29;20032;-69
2021/07/22 04:01:47;;;;;;;0.68;0.40;;;14.40;91.80;;;;;;4918339;29;20115;-69
2021/07/22 04:04:13;;;;;;;0.88;0.50;;;14.50;91.90;;;;;;4918066;29;20107;-69
2021/07/22 04:06:42;;;;;;;1.67;0.60;;;14.50;91.90;;;;;;4918301;29;20029;-69
2021/07/22 04:09:07;;;;;;;1.30;0.40;;;14.50;91.90;;;;;;4917933;29;20025;-69
2021/07/22 04:11:37;;;;;;;1.23;0.60;;;14.60;92.00;;;;;;4918162;29;20035;-69
2021/07/22 04:14:06;;;;;;;1.47;0.57;;;14.70;92.00;;;;;;4917896;29;20035;-69
2021/07/22 04:16:34;;;;;;;1.50;0.60;;;14.90;91.80;;;;;;4917680;29;20035;-69
2021/07/22 04:19:00;;;;;;;2.05;0.60;;;15.10;91.40;;;;;;4918007;29;20131;-69
2021/07/22 04:21:26;;;;;;;0.55;0.40;;;15.40;91.10;;;;;;4917813;29;20100;-68
2021/07/22 04:23:51;;;;;;;4.40;0.65;;;15.70;90.70;;;;;;4917710;29;20036;-69
2021/07/22 04:26:17;;;;;;;2.53;0.50;;;16.10;90.10;;;;;;4917690;29;20467;-69
2021/07/22 04:28:44;;;;;;;1.63;0.60;;;16.50;88.60;;;;;;4917305;29;20032;-68
2021/07/22 04:31:15;;;;;;;1.30;0.50;;;16.90;87.60;;;;;;4917644;29;20143;-68
2021/07/22 04:33:41;;;;;;;2.17;0.55;;;17.30;85.60;;;;;;4917410;29;20028;-67
2021/07/22 04:36:07;;;;;;;0.70;0.50;;;17.50;84.00;;;;;;4917570;29;20027;-66
2021/07/22 04:38:37;;;;;;;0.50;0.38;;;17.70;83.50;;;;;;4917452;29;20492;-70
2021/07/22 04:41:06;;;;;;;1.10;0.70;;;18.00;82.60;;;;;;4917485;29;20032;-68
2021/07/22 04:43:32;;;;;;;0.37;0.33;;;18.30;81.80;;;;;;4916970;29;20036;-67
2021/07/22 04:46:04;;;;;;;2.75;0.60;;;18.20;80.60;;;;;;4909285;29;20035;-66
2021/07/22 04:48:32;;;;;;;0.60;0.60;;;18.20;80.70;;;;;;4911625;29;20511;-67
2021/07/22 04:51:07;;;;;;;0.77;0.60;;;18.40;80.90;;;;;;4917313;29;20028;-68
2021/07/22 04:53:36;;;;;;;1.60;0.82;;;18.30;79.90;;;;;;4908522;29;20384;-67
2021/07/22 04:56:02;;;;;;;1.23;0.70;;;18.00;80.30;;;;;;4912705;29;20028;-67
2021/07/22 04:58:27;;;;;;;2.65;1.23;;;17.70;81.60;;;;;;4916396;29;20365;-66
2021/07/22 05:00:54;;;;;;;0.90;0.70;;;17.40;82.40;;;;;;4909348;29;20032;-67
2021/07/22 05:03:20;;;;;;;1.88;0.80;;;17.30;83.80;;;;;;4908230;29;20383;-67
2021/07/22 05:05:46;;;;;;;0.80;0.70;;;17.10;83.50;;;;;;4906590;29;20096;-67
2021/07/22 05:08:11;;;;;;;1.50;0.80;;;17.00;84.50;;;;;;4906229;29;20424;-67
2021/07/22 05:10:37;;;;;;;2.45;0.80;;;17.20;84.30;;;;;;4907529;29;20031;-66
2021/07/22 05:13:03;;;;;;;3.00;1.00;;;17.20;84.10;;;;;;4899682;29;20104;-66
2021/07/22 05:15:30;;;;;;;1.27;0.90;;;17.30;84.40;;;;;;4909574;29;20021;-67
2021/07/22 05:17:56;;;;;;;1.25;0.80;;;17.70;83.90;;;;;;4905775;29;20049;-66
2021/07/22 05:20:22;;;;;;;1.50;1.00;;;18.10;82.70;;;;;;4907345;29;20093;-66
2021/07/22 05:22:48;;;;;;;1.23;0.75;;;18.40;81.10;;;;;;4906943;29;20028;-66
2021/07/22 05:25:14;;;;;;;1.20;0.98;;;18.70;80.30;;;;;;4913028;29;20039;-67
2021/07/22 05:27:40;;;;;;;1.70;1.08;;;19.00;79.50;;;;;;4916463;29;20028;-66
2021/07/22 05:30:06;;;;;;;1.77;1.00;;;19.30;78.00;;;;;;4916493;29;20043;-67
2021/07/22 05:32:32;;;;;;;1.73;1.15;;;19.40;77.40;;;;;;4916746;29;20444;-66
2021/07/22 05:34:57;;;;;;;3.15;1.10;;;19.70;76.90;;;;;;4916315;29;20111;-66
2021/07/22 05:37:23;;;;;;;7.60;1.67;;;19.70;75.60;;;;;;4916418;29;20040;-66
2021/07/22 05:39:49;;;;;;;2.55;1.25;;;19.90;75.00;;;;;;4916243;29;20036;-66
2021/07/22 05:42:15;;;;;;;1.45;0.90;;;20.00;74.80;;;;;;4916384;29;20056;-66
2021/07/22 05:44:41;;;;;;;5.10;1.25;;;20.10;73.60;;;;;;4916157;29;20036;-66
2021/07/22 05:47:06;;;;;;;3.42;1.25;;;20.50;73.30;;;;;;4899403;29;20056;-66
2021/07/22 05:49:32;;;;;;;3.75;1.38;;;20.70;72.00;;;;;;4916197;29;20036;-66
2021/07/22 05:51:59;;;;;;;1.20;1.10;;;20.90;70.80;;;;;;4915874;29;20032;-66
2021/07/22 05:54:25;;;;;;;1.75;1.13;;;20.90;70.00;;;;;;4915592;29;20042;-66
2021/07/22 05:56:50;;;;;;;1.15;0.82;;;20.70;69.90;;;;;;4916101;29;20028;-67
2021/07/22 05:59:16;;;;;;;3.05;1.23;;;20.70;70.20;;;;;;4916318;29;20038;-67
2021/07/22 06:01:42;;;;;;;1.23;1.10;;;20.70;70.60;;;;;;4915987;29;20032;-66
2021/07/22 06:04:07;;;;;;;6.43;1.10;;;20.60;70.00;;;;;;4916256;29;20028;-66
2021/07/22 06:06:36;;;;;;;1.60;1.17;;;20.60;69.70;;;;;;4915911;29;20028;-67
2021/07/22 06:09:04;;;;;;;4.07;1.40;;;20.50;69.60;;;;;;4916216;29;20451;-69
2021/07/22 06:11:30;;;;;;;1.67;1.10;;;20.40;70.20;;;;;;4916323;29;20030;-70
2021/07/22 06:13:56;;;;;;;2.55;1.23;;;20.50;70.50;;;;;;4904764;29;20025;-67
2021/07/22 06:16:22;;;;;;;1.52;1.40;;;20.60;70.20;;;;;;4902851;29;20076;-69
2021/07/22 06:18:47;;;;;;;2.75;1.42;;;20.70;70.90;;;;;;4905388;29;20044;-69
2021/07/22 06:21:15;;;;;;;1.33;1.20;;;20.80;70.30;;;;;;4899646;29;20025;-67
2021/07/22 06:23:41;;;;;;;2.20;1.52;;;20.90;69.60;;;;;;4896824;29;20036;-71
2021/07/22 06:26:06;;;;;;;3.15;1.30;;;20.90;69.80;;;;;;4903287;29;20038;-67
2021/07/22 06:28:32;;;;;;;6.25;1.67;;;21.00;69.70;;;;;;4904460;29;20028;-67
2021/07/22 06:30:58;;;;;;;3.28;1.58;;;21.10;69.50;;;;;;4907294;29;20452;-71
2021/07/22 06:33:24;;;;;;;4.03;1.70;;;21.20;68.40;;;;;;4912877;29;20028;-70
2021/07/22 06:35:50;;;;;;;3.95;1.55;;;21.10;68.10;;;;;;4915759;29;20032;-74
2021/07/22 06:38:16;;;;;;;2.08;1.88;;;20.90;68.10;;;;;;4915559;29;20047;-76
2021/07/22 06:40:42;;;;;;;22.13;3.20;;;20.90;69.00;;;;;;4915613;29;20024;-70
2021/07/22 06:43:11;;;;;;;8.18;2.05;;;20.90;68.90;;;;;;4915572;29;20034;-71
2021/07/22 06:45:39;;;;;;;2.17;1.98;;;20.90;69.10;;;;;;4915621;29;20028;-71
2021/07/22 06:48:05;;;;;;;1.92;1.60;;;20.80;68.50;;;;;;4915674;29;20040;-71
2021/07/22 06:50:31;;;;;;;7.57;1.88;;;20.80;68.70;;;;;;4915592;29;20095;-71
2021/07/22 06:52:58;;;;;;;4.18;1.58;;;20.80;68.60;;;;;;4915466;29;20448;-77
2021/07/22 06:55:23;;;;;;;3.03;1.77;;;20.80;69.10;;;;;;4908454;29;20054;-78
2021/07/22 06:57:49;;;;;;;3.50;1.92;;;20.90;70.20;;;;;;4912122;29;20484;-77
2021/07/22 07:00:15;;;;;;;2.13;1.77;;;21.00;69.10;;;;;;4904078;29;20532;-72
2021/07/22 07:02:42;;;;;;;4.97;1.80;;;20.90;68.30;;;;;;4896655;29;20029;-71
2021/07/22 07:05:08;;;;;;;2.42;1.90;;;20.80;69.20;;;;;;4894366;29;20389;-71
2021/07/22 07:07:34;;;;;;;5.57;1.98;;;20.80;69.00;;;;;;4895973;29;20029;-68
2021/07/22 07:10:00;;;;;;;5.30;1.52;;;20.70;69.40;;;;;;4896060;29;20119;-74
2021/07/22 07:12:26;;;;;;;2.70;2.10;;;20.70;69.00;;;;;;4899574;29;20096;-76
2021/07/22 07:14:52;;;;;;;3.28;1.77;;;20.70;69.50;;;;;;4914375;29;20123;-75
2021/07/22 07:17:17;;;;;;;5.75;1.70;;;20.70;69.40;;;;;;4914555;29;20036;-74
2021/07/22 07:19:43;;;;;;;3.40;1.75;;;20.60;68.80;;;;;;4914718;29;20036;-73
2021/07/22 07:22:09;;;;;;;1.90;1.42;;;20.50;69.00;;;;;;4915293;29;20051;-72
2021/07/22 07:24:35;;;;;;;4.32;1.67;;;20.50;69.20;;;;;;4914964;29;20480;-71
2021/07/22 07:27:01;;;;;;;5.70;1.30;;;20.30;69.00;;;;;;4915045;29;20028;-73
2021/07/22 07:29:26;;;;;;;3.05;1.60;;;20.10;69.50;;;;;;4914879;29;20036;-72
2021/07/22 07:31:58;;;;;;;3.15;2.10;;;20.00;70.30;;;;;;4915031;29;20084;-72
2021/07/22 07:34:23;;;;;;;2.45;1.95;;;19.90;70.20;;;;;;4916289;29;20480;-81
2021/07/22 07:36:49;;;;;;;1.92;1.40;;;20.00;70.40;;;;;;4918231;29;20028;-76
2021/07/22 07:39:16;;;;;;;10.07;1.90;;;20.00;70.60;;;;;;4918515;29;20047;-84
2021/07/22 07:41:42;;;;;;;6.28;1.80;;;20.10;70.20;;;;;;4918311;29;20024;-85
2021/07/22 07:44:08;;;;;;;3.72;1.70;;;20.30;70.90;;;;;;4918107;29;20111;-82
2021/07/22 07:46:34;;;;;;;3.17;1.50;;;20.60;70.80;;;;;;4918420;29;20385;-83
2021/07/22 07:49:00;;;;;;;3.45;1.77;;;20.60;68.30;;;;;;4917939;29;20140;-83
2021/07/22 07:51:26;;;;;;;3.22;1.33;;;20.40;68.60;;;;;;4901072;29;20111;-82
2021/07/22 07:53:52;;;;;;;3.17;1.35;;;20.30;68.40;;;;;;4917431;29;20188;-83
2021/07/22 07:56:18;;;;;;;4.13;1.38;;;20.20;69.40;;;;;;4918000;29;20027;-82
2021/07/22 07:58:44;;;;;;;3.53;1.48;;;20.20;69.00;;;;;;4917748;29;20572;-82
2021/07/22 08:01:10;;;;;;;2.85;1.48;;;20.10;69.60;;;;;;4917959;29;20103;-82
2021/07/22 08:03:35;;;;;;;2.00;1.42;;;20.10;70.10;;;;;;4917673;29;20028;-83
2021/07/22 08:06:01;;;;;;;3.28;1.10;;;20.20;69.60;;;;;;4917867;29;20028;-82
2021/07/22 08:08:27;;;;;;;3.28;1.30;;;20.20;69.40;;;;;;4918144;29;20103;-83
2021/07/22 08:10:58;;;;;;;2.05;1.30;;;20.30;68.60;;;;;;4917624;29;20052;-83
2021/07/22 08:13:23;;;;;;;1.30;1.20;;;20.30;68.80;;;;;;4917607;29;20114;-82
2021/07/22 08:15:49;;;;;;;1.73;1.20;;;20.40;69.10;;;;;;4917745;29;20107;-82
2021/07/22 08:18:15;;;;;;;1.55;1.30;;;20.40;69.20;;;;;;4917659;29;20519;-83
2021/07/22 08:20:41;;;;;;;1.65;1.20;;;20.40;69.90;;;;;;4917945;29;20123;-83
2021/07/22 08:23:07;;;;;;;5.97;1.65;;;20.50;69.30;;;;;;4917468;29;20179;-81
2021/07/22 08:25:33;;;;;;;1.58;1.30;;;20.50;68.60;;;;;;4917403;29;20500;-82
2021/07/22 08:27:59;;;;;;;3.05;1.35;;;20.60;69.20;;;;;;4917588;29;20032;-90
2021/07/22 08:30:25;;;;;;;1.88;1.52;;;20.70;68.80;;;;;;4917813;29;20079;-71
2021/07/22 08:32:51;;;;;;;3.38;1.27;;;20.80;68.90;;;;;;4917416;29;20039;-67
2021/07/22 08:35:17;;;;;;;2.35;1.60;;;20.90;69.30;;;;;;4917421;29;20557;-67
2021/07/22 08:37:43;;;;;;;4.38;1.17;;;20.90;69.10;;;;;;4917103;29;20038;-70
2021/07/22 08:40:14;;;;;;;2.95;1.23;;;21.00;68.30;;;;;;4917076;29;20079;-67
2021/07/22 08:42:45;;;;;;;2.30;1.30;;;21.00;67.80;;;;;;4900414;29;20036;-68
2021/07/22 08:45:11;;;;;;;4.97;2.03;;;21.10;68.70;;;;;;4916855;29;20119;-67
2021/07/22 08:47:38;;;;;;;1.73;1.33;;;21.20;67.60;;;;;;4917277;29;20052;-67
2021/07/22 08:50:08;;;;;;;2.15;1.02;;;21.00;67.00;;;;;;4916762;29;20032;-67
2021/07/22 08:52:34;;;;;;;2.65;1.30;;;20.80;68.40;;;;;;4917075;29;20058;-67
2021/07/22 08:55:00;;;;;;;1.10;1.00;;;20.70;67.90;;;;;;4916769;29;20024;-67
2021/07/22 08:57:31;;;;;;;1.45;1.35;;;20.60;67.30;;;;;;4917230;29;20052;-67
2021/07/22 08:59:59;;;;;;;1.38;1.10;;;20.50;66.90;;;;;;4899831;29;20047;-67
2021/07/22 09:02:30;;;;;;;1.33;1.10;;;20.50;67.10;;;;;;4916936;29;20484;-67
2021/07/22 09:05:00;;;;;;;1.25;1.10;;;20.40;68.10;;;;;;4916741;29;20028;-67
2021/07/22 09:07:28;;;;;;;2.88;1.23;;;20.40;68.20;;;;;;4917127;29;20024;-67
2021/07/22 09:10:06;;;;;;;1.60;1.20;;;20.50;69.40;;;;;;4916921;29;20036;-67
2021/07/22 09:12:43;;;;;;;1.60;0.93;;;20.50;68.90;;;;;;4916729;29;20063;-67
2021/07/22 09:15:20;;;;;;;3.13;1.48;;;20.50;70.00;;;;;;4916520;29;20020;-67
2021/07/22 09:17:46;;;;;;;1.80;1.27;;;20.60;69.50;;;;;;4916772;29;20095;-67
2021/07/22 09:20:13;;;;;;;2.00;1.00;;;20.70;68.90;;;;;;4916823;29;20031;-67
2021/07/22 09:22:41;;;;;;;2.13;1.25;;;20.70;68.90;;;;;;4916561;29;20042;-67
2021/07/22 09:25:09;;;;;;;3.17;1.00;;;20.80;69.00;;;;;;4916619;29;20028;-67
2021/07/22 09:27:40;;;;;;;1.05;0.90;;;20.80;68.90;;;;;;4916518;29;20028;-67
2021/07/22 09:30:17;;;;;;;1.10;1.00;;;20.90;68.70;;;;;;4916548;29;20395;-67
2021/07/22 09:32:47;;;;;;;3.15;1.30;;;20.90;66.90;;;;;;4916366;29;20055;-67
2021/07/22 09:35:16;;;;;;;;;;;20.80;67.50;;;;;;4916769;29;20107;-67
2021/07/22 09:37:55;;;;;;;2.80;0.88;;;20.80;66.40;;;;;;4916550;29;19922;-67
2021/07/22 09:40:29;;;;;;;1.02;0.88;;;20.80;66.40;;;;;;4916250;29;20475;-67
2021/07/22 09:42:55;;;;;;;0.60;0.60;;;20.80;66.10;;;;;;4916377;29;20033;-67
2021/07/22 09:45:23;;;;;;;0.70;0.70;;;20.80;65.30;;;;;;4916182;29;20075;-67
2021/07/22 09:47:50;;;;;;;1.05;0.77;;;20.80;66.90;;;;;;4916092;29;20039;-67
2021/07/22 09:50:18;;;;;;;1.70;0.85;;;20.80;66.30;;;;;;4916115;29;20448;-67
2021/07/22 09:52:45;;;;;;;1.85;1.27;;;20.80;67.00;;;;;;4915899;29;20052;-67
2021/07/22 09:55:24;;;;;;;0.95;0.77;;;20.80;66.70;;;;;;4916099;29;20040;-67
2021/07/22 09:58:02;;;;;;;1.53;1.00;;;20.90;67.10;;;;;;4915016;29;20031;-67
2021/07/22 10:00:29;;;;;;;0.82;0.75;;;20.80;66.40;;;;;;4915943;29;20480;-67
2021/07/22 10:03:01;;;;;;;1.38;1.05;;;20.70;66.40;;;;;;4915798;29;20125;-67
2021/07/22 10:05:48;;;;;;;2.85;0.82;;;20.60;66.50;;;;;;4915865;29;20365;-67
2021/07/22 10:08:18;;;;;;;2.25;0.88;;;20.60;66.70;;;;;;4915984;29;20031;-67
2021/07/22 10:10:49;;;;;;;1.38;1.15;;;20.50;67.50;;;;;;4915869;29;20020;-67
2021/07/22 10:13:16;;;;;;;0.80;0.80;;;20.60;66.90;;;;;;4915751;29;20036;-67
2021/07/22 10:15:43;;;;;;;1.77;1.08;;;20.50;67.00;;;;;;4915710;29;20067;-67
2021/07/22 10:18:09;;;;;;;1.02;0.93;;;20.40;67.20;;;;;;4915477;29;20051;-67
2021/07/22 10:20:35;;;;;;;0.73;0.60;;;20.40;66.50;;;;;;4915707;29;20024;-67
2021/07/22 10:23:02;;;;;;;2.30;0.80;;;20.30;65.70;;;;;;4915618;29;20106;-67
2021/07/22 10:25:28;;;;;;;2.17;0.70;;;20.30;65.90;;;;;;4915732;29;20079;-67
2021/07/22 10:27:56;;;;;;;1.52;0.60;;;20.20;66.60;;;;;;4915806;29;20487;-67
2021/07/22 10:30:22;;;;;;;1.15;1.05;;;20.30;67.60;;;;;;4915555;29;20110;-67
2021/07/22 10:32:54;;;;;;;2.65;0.88;;;20.50;68.90;;;;;;4915587;29;20032;-67
2021/07/22 10:35:32;;;;;;;0.70;0.70;;;20.60;66.70;;;;;;4915654;29;20110;-67
2021/07/22 10:38:04;;;;;;;0.57;0.57;;;20.50;66.80;;;;;;4915752;29;20369;-67
2021/07/22 10:40:48;;;;;;;0.75;0.65;;;20.50;67.00;;;;;;4915471;29;20146;-67
2021/07/22 10:43:34;;;;;;;2.80;0.60;;;20.50;66.40;;;;;;4915663;29;20083;-67
2021/07/22 10:46:01;;;;;;;0.93;0.60;;;20.50;67.40;;;;;;4915318;29;20030;-67
2021/07/22 10:48:28;;;;;;;0.85;0.73;;;20.50;67.30;;;;;;4915788;29;20028;-67
2021/07/22 10:50:53;;;;;;;1.88;0.60;;;20.60;66.80;;;;;;4915776;29;20441;-67
2021/07/22 10:53:40;;;;;;;0.70;0.70;;;20.50;65.90;;;;;;4915312;29;20127;-67
2021/07/22 10:56:11;;;;;;;0.50;0.50;;;20.50;66.10;;;;;;4915578;29;20031;-67
2021/07/22 10:58:37;;;;;;;0.50;0.50;;;20.60;65.60;;;;;;4915418;29;20088;-67
2021/07/22 11:01:04;;;;;;;0.77;0.63;;;20.50;66.60;;;;;;4915463;29;20409;-68
2021/07/22 11:03:36;;;;;;;1.27;0.75;;;20.50;66.00;;;;;;4915457;29;20076;-68
2021/07/22 11:06:05;;;;;;;1.33;0.70;;;20.40;65.70;;;;;;4915361;29;20464;-68
2021/07/22 11:08:38;;;;;;;2.70;0.60;;;20.40;66.50;;;;;;4915864;29;20059;-68
2021/07/22 11:11:04;;;;;;;0.80;0.60;;;20.40;66.30;;;;;;4918970;29;20090;-68
2021/07/22 11:13:40;;;;;;;1.17;0.60;;;20.50;67.10;;;;;;4919090;29;20538;-68
2021/07/22 11:16:22;;;;;;;0.80;0.60;;;20.60;67.00;;;;;;4918826;29;20140;-68
2021/07/22 11:18:48;;;;;;;1.23;0.60;;;20.50;65.70;;;;;;4919112;29;20071;-68
2021/07/22 11:21:35;;;;;;;0.88;0.60;;;20.40;66.30;;;;;;4918807;29;20171;-68
2021/07/22 11:24:06;;;;;;;1.08;0.70;;;20.50;67.30;;;;;;4918656;29;20064;-68
2021/07/22 11:26:37;;;;;;;0.68;0.52;;;20.50;66.50;;;;;;4918595;29;20084;-68
2021/07/22 11:29:05;;;;;;;1.58;0.52;;;20.50;65.80;;;;;;4918798;29;20060;-68
2021/07/22 11:31:37;;;;;;;0.98;0.70;;;20.50;65.40;;;;;;4918682;29;20028;-67
2021/07/22 11:34:03;;;;;;;0.80;0.57;;;20.40;64.50;;;;;;4918547;29;20020;-68
2021/07/22 11:36:31;;;;;;;2.92;0.43;;;20.40;65.70;;;;;;4918420;29;20067;-68
2021/07/22 11:38:56;;;;;;;1.77;0.60;;;20.50;66.60;;;;;;4918336;29;20036;-68
2021/07/22 11:41:22;;;;;;;2.67;0.43;;;20.60;66.40;;;;;;4918346;29;20024;-68
2021/07/22 11:43:54;;;;;;;0.40;0.40;;;20.60;66.30;;;;;;4918326;29;20449;-68
2021/07/22 11:46:36;;;;;;;0.85;0.80;;;20.50;65.70;;;;;;4918577;29;20039;-68
2021/07/22 11:49:16;;;;;;;1.50;0.50;;;20.50;65.20;;;;;;4918437;29;20020;-68
2021/07/22 11:51:47;;;;;;;1.67;1.13;;;20.30;65.30;;;;;;4918673;29;20500;-68
2021/07/22 11:54:14;;;;;;;1.17;0.45;;;20.20;66.00;;;;;;4917943;29;20052;-68
2021/07/22 11:56:40;;;;;;;0.55;0.50;;;20.30;66.80;;;;;;4918122;29;20115;-67
2021/07/22 11:59:11;;;;;;;0.40;0.40;;;20.40;66.40;;;;;;4917797;29;20040;-68
2021/07/22 12:01:50;;;;;;;1.48;0.30;;;20.40;66.10;;;;;;4917926;29;20515;-68
2021/07/22 12:04:33;;;;;;;0.50;0.47;;;20.50;67.00;;;;;;4917942;29;20024;-68
2021/07/22 12:07:05;;;;;;;0.43;0.40;;;20.60;67.30;;;;;;4917863;29;20036;-68
2021/07/22 12:09:31;;;;;;;0.77;0.57;;;20.70;67.90;;;;;;4918009;29;20047;-68
2021/07/22 12:12:00;;;;;;;1.92;0.60;;;20.70;65.70;;;;;;4918115;29;20353;-68
2021/07/22 12:14:37;;;;;;;1.80;0.45;;;20.60;65.40;;;;;;4918076;29;20400;-68
2021/07/22 12:17:04;;;;;;;0.32;0.32;;;20.60;66.00;;;;;;4918022;29;20028;-68
2021/07/22 12:19:32;;;;;;;0.73;0.38;;;20.50;66.20;;;;;;4918014;29;20044;-68
2021/07/22 12:22:18;;;;;;;1.77;1.13;;;20.60;67.50;;;;;;4916689;29;20027;-68
2021/07/22 12:24:44;;;;;;;0.30;0.22;;;20.70;65.10;;;;;;4917617;29;20036;-68
2021/07/22 12:27:33;;;;;;;0.50;0.28;;;20.70;64.80;;;;;;4917598;29;20036;-68
2021/07/22 12:30:00;;;;;;;3.30;0.30;;;20.60;63.60;;;;;;4917499;29;20634;-68
2021/07/22 12:32:28;;;;;;;0.20;0.20;;;20.60;63.80;;;;;;4917830;29;20115;-66
2021/07/22 12:34:55;;;;;;;1.73;0.35;;;20.70;64.70;;;;;;4917467;29;20094;-66
2021/07/22 12:37:21;;;;;;;0.73;0.20;;;20.70;63.90;;;;;;4917329;29;20488;-66
2021/07/22 12:39:46;;;;;;;1.08;0.40;;;20.80;64.10;;;;;;4917265;29;20024;-67
2021/07/22 12:42:14;;;;;;;0.20;0.20;;;20.80;63.10;;;;;;4917292;29;20024;-68
2021/07/22 12:44:44;;;;;;;0.32;0.20;;;20.60;62.50;;;;;;4917483;29;20101;-68
2021/07/22 12:47:28;;;;;;;;;;;20.50;62.80;;;;;;4918096;29;20020;-68
2021/07/22 12:49:54;;;;;;;1.70;0.40;;;20.40;62.70;;;;;;4917162;29;20394;-68
2021/07/22 12:52:20;;;;;;;0.40;0.28;;;20.40;64.00;;;;;;4917052;29;20092;-68
2021/07/22 12:54:46;;;;;;;0.20;0.20;;;20.30;64.60;;;;;;4917022;29;20024;-68
2021/07/22 12:57:11;;;;;;;1.77;0.45;;;20.30;64.00;;;;;;4916903;29;20448;-67
2021/07/22 12:59:37;;;;;;;2.97;0.30;;;20.20;63.40;;;;;;4916993;29;20028;-68
2021/07/22 13:02:03;;;;;;;1.67;0.30;;;20.20;63.50;;;;;;4916708;29;20020;-68
2021/07/22 13:04:30;;;;;;;2.20;0.40;;;20.10;62.90;;;;;;4916868;29;20111;-68
2021/07/22 13:06:56;;;;;;;0.40;0.30;;;20.00;63.30;;;;;;4916867;29;20042;-68
2021/07/22 13:09:22;;;;;;;2.88;0.30;;;20.00;63.80;;;;;;4917064;29;20032;-68
2021/07/22 13:11:55;;;;;;;0.22;0.22;;;20.00;63.80;;;;;;4916550;29;20122;-68
2021/07/22 13:14:21;;;;;;;0.80;0.40;;;20.00;63.60;;;;;;4916846;29;20031;-68
2021/07/22 13:16:47;;;;;;;0.63;0.30;;;19.90;63.40;;;;;;4916640;29;20499;-68
2021/07/22 13:19:16;;;;;;;0.73;0.35;;;19.90;64.10;;;;;;4916449;29;20040;-68
2021/07/22 13:21:46;;;;;;;2.55;0.30;;;19.90;64.90;;;;;;4916450;29;20032;-68
2021/07/22 13:24:12;;;;;;;0.20;0.20;;;20.00;64.60;;;;;;4916600;29;20039;-67